sensor_id;sensor_type;location;lat;lon;timestamp;P1;durP1;ratioP1;P2;durP2;ratioP2
12625;SDS011;6378;42.684;23.372;2022-11-04T00:01:40;15.07;;;11.35;;
12625;SDS011;6378;42.684;23.372;2022-11-04T00:04:07;15.88;;;11.40;;
12625;SDS011;6378;42.684;23.372;2022-11-04T00:06:34;14.73;;;10.82;;
12625;SDS011;6378;42.684;23.372;2022-11-04T00:09:00;15.57;;;10.48;;
12625;SDS011;6378;42.684;23.372;2022-11-04T00:11:26;15.80;;;10.85;;
12625;SDS011;6378;42.684;23.372;2022-11-04T00:14:11;17.83;;;11.07;;
12625;SDS011;6378;42.684;23.372;2022-11-04T00:16:37;18.52;;;11.38;;
12625;SDS011;6378;42.684;23.372;2022-11-04T00:19:22;16.40;;;11.00;;
12625;SDS011;6378;42.684;23.372;2022-11-04T00:21:48;16.13;;;12.05;;
12625;SDS011;6378;42.684;23.372;2022-11-04T00:24:32;14.52;;;10.85;;
12625;SDS011;6378;42.684;23.372;2022-11-04T00:27:13;17.77;;;11.18;;
12625;SDS011;6378;42.684;23.372;2022-11-04T00:29:58;15.85;;;10.77;;
12625;SDS011;6378;42.684;23.372;2022-11-04T00:32:24;15.52;;;11.43;;
12625;SDS011;6378;42.684;23.372;2022-11-04T00:35:09;17.65;;;12.18;;
12625;SDS011;6378;42.684;23.372;2022-11-04T00:37:39;17.23;;;11.95;;
12625;SDS011;6378;42.684;23.372;2022-11-04T00:40:05;17.53;;;12.40;;
12625;SDS011;6378;42.684;23.372;2022-11-04T00:42:31;21.17;;;12.77;;
12625;SDS011;6378;42.684;23.372;2022-11-04T00:44:57;23.38;;;13.30;;
12625;SDS011;6378;42.684;23.372;2022-11-04T00:47:22;21.77;;;12.65;;
12625;SDS011;6378;42.684;23.372;2022-11-04T00:49:48;19.15;;;13.07;;
12625;SDS011;6378;42.684;23.372;2022-11-04T00:58:08;22.60;;;13.27;;
12625;SDS011;6378;42.684;23.372;2022-11-04T01:00:33;19.92;;;12.43;;
12625;SDS011;6378;42.684;23.372;2022-11-04T01:02:59;22.90;;;13.13;;
12625;SDS011;6378;42.684;23.372;2022-11-04T01:05:24;16.80;;;12.18;;
12625;SDS011;6378;42.684;23.372;2022-11-04T01:07:50;19.83;;;13.32;;
12625;SDS011;6378;42.684;23.372;2022-11-04T01:10:15;21.92;;;12.85;;
12625;SDS011;6378;42.684;23.372;2022-11-04T01:12:41;20.45;;;15.02;;
12625;SDS011;6378;42.684;23.372;2022-11-04T01:15:06;20.17;;;11.85;;
12625;SDS011;6378;42.684;23.372;2022-11-04T01:17:32;19.30;;;13.10;;
12625;SDS011;6378;42.684;23.372;2022-11-04T01:19:58;19.10;;;12.60;;
12625;SDS011;6378;42.684;23.372;2022-11-04T01:22:23;19.23;;;12.70;;
12625;SDS011;6378;42.684;23.372;2022-11-04T01:24:48;19.45;;;12.43;;
12625;SDS011;6378;42.684;23.372;2022-11-04T01:27:14;20.73;;;12.40;;
12625;SDS011;6378;42.684;23.372;2022-11-04T01:29:39;18.63;;;12.93;;
12625;SDS011;6378;42.684;23.372;2022-11-04T01:32:05;19.93;;;13.37;;
12625;SDS011;6378;42.684;23.372;2022-11-04T01:34:30;28.30;;;15.40;;
12625;SDS011;6378;42.684;23.372;2022-11-04T01:36:55;26.13;;;15.35;;
12625;SDS011;6378;42.684;23.372;2022-11-04T01:39:21;20.63;;;13.70;;
12625;SDS011;6378;42.684;23.372;2022-11-04T01:41:46;21.05;;;14.30;;
12625;SDS011;6378;42.684;23.372;2022-11-04T01:47:07;21.85;;;14.93;;
12625;SDS011;6378;42.684;23.372;2022-11-04T01:49:41;20.42;;;15.35;;
12625;SDS011;6378;42.684;23.372;2022-11-04T01:52:12;21.38;;;14.43;;
12625;SDS011;6378;42.684;23.372;2022-11-04T01:54:42;22.38;;;14.70;;
12625;SDS011;6378;42.684;23.372;2022-11-04T01:57:12;21.57;;;15.20;;
12625;SDS011;6378;42.684;23.372;2022-11-04T01:59:42;24.15;;;15.82;;
12625;SDS011;6378;42.684;23.372;2022-11-04T02:02:08;22.67;;;15.35;;
12625;SDS011;6378;42.684;23.372;2022-11-04T02:04:34;26.00;;;16.95;;
12625;SDS011;6378;42.684;23.372;2022-11-04T02:07:01;23.15;;;16.25;;
12625;SDS011;6378;42.684;23.372;2022-11-04T02:09:30;25.03;;;15.73;;
12625;SDS011;6378;42.684;23.372;2022-11-04T02:11:57;25.47;;;16.00;;
12625;SDS011;6378;42.684;23.372;2022-11-04T02:14:41;33.57;;;23.13;;
12625;SDS011;6378;42.684;23.372;2022-11-04T02:17:14;27.43;;;18.37;;
12625;SDS011;6378;42.684;23.372;2022-11-04T02:30:47;26.77;;;17.60;;
12625;SDS011;6378;42.684;23.372;2022-11-04T02:33:21;22.33;;;15.60;;
12625;SDS011;6378;42.684;23.372;2022-11-04T02:36:02;25.27;;;16.80;;
12625;SDS011;6378;42.684;23.372;2022-11-04T02:38:31;22.90;;;16.27;;
12625;SDS011;6378;42.684;23.372;2022-11-04T02:44:20;28.40;;;17.57;;
12625;SDS011;6378;42.684;23.372;2022-11-04T02:46:57;26.60;;;17.40;;
12625;SDS011;6378;42.684;23.372;2022-11-04T02:52:01;26.80;;;16.97;;
12625;SDS011;6378;42.684;23.372;2022-11-04T02:54:30;26.77;;;17.73;;
12625;SDS011;6378;42.684;23.372;2022-11-04T02:57:19;24.67;;;17.13;;
12625;SDS011;6378;42.684;23.372;2022-11-04T02:59:52;25.33;;;16.90;;
12625;SDS011;6378;42.684;23.372;2022-11-04T03:02:32;31.47;;;18.60;;
12625;SDS011;6378;42.684;23.372;2022-11-04T03:05:02;30.87;;;19.40;;
12625;SDS011;6378;42.684;23.372;2022-11-04T03:07:31;28.00;;;19.67;;
12625;SDS011;6378;42.684;23.372;2022-11-04T03:10:02;34.20;;;19.77;;
12625;SDS011;6378;42.684;23.372;2022-11-04T03:12:34;28.67;;;19.50;;
12625;SDS011;6378;42.684;23.372;2022-11-04T03:15:06;26.10;;;19.07;;
12625;SDS011;6378;42.684;23.372;2022-11-04T03:17:38;30.53;;;19.23;;
12625;SDS011;6378;42.684;23.372;2022-11-04T03:20:06;30.80;;;20.37;;
12625;SDS011;6378;42.684;23.372;2022-11-04T03:22:37;28.77;;;19.60;;
12625;SDS011;6378;42.684;23.372;2022-11-04T03:25:04;27.67;;;18.40;;
12625;SDS011;6378;42.684;23.372;2022-11-04T03:27:39;28.40;;;18.57;;
12625;SDS011;6378;42.684;23.372;2022-11-04T03:30:16;26.63;;;19.40;;
12625;SDS011;6378;42.684;23.372;2022-11-04T03:32:45;30.60;;;20.27;;
12625;SDS011;6378;42.684;23.372;2022-11-04T03:35:18;28.93;;;19.63;;
12625;SDS011;6378;42.684;23.372;2022-11-04T03:37:44;32.23;;;20.43;;
12625;SDS011;6378;42.684;23.372;2022-11-04T03:40:12;31.23;;;21.43;;
12625;SDS011;6378;42.684;23.372;2022-11-04T03:42:42;27.90;;;19.93;;
12625;SDS011;6378;42.684;23.372;2022-11-04T03:45:11;30.00;;;19.70;;
12625;SDS011;6378;42.684;23.372;2022-11-04T03:47:38;30.47;;;19.47;;
12625;SDS011;6378;42.684;23.372;2022-11-04T03:50:06;29.43;;;19.97;;
12625;SDS011;6378;42.684;23.372;2022-11-04T03:52:33;31.83;;;21.53;;
12625;SDS011;6378;42.684;23.372;2022-11-04T03:54:59;32.93;;;22.67;;
12625;SDS011;6378;42.684;23.372;2022-11-04T03:57:29;39.60;;;22.57;;
12625;SDS011;6378;42.684;23.372;2022-11-04T04:00:21;33.80;;;23.90;;
12625;SDS011;6378;42.684;23.372;2022-11-04T04:02:56;36.93;;;22.60;;
12625;SDS011;6378;42.684;23.372;2022-11-04T04:16:31;35.97;;;22.43;;
12625;SDS011;6378;42.684;23.372;2022-11-04T04:19:13;36.77;;;22.63;;
12625;SDS011;6378;42.684;23.372;2022-11-04T04:21:53;37.83;;;22.00;;
12625;SDS011;6378;42.684;23.372;2022-11-04T04:24:25;33.03;;;23.37;;
12625;SDS011;6378;42.684;23.372;2022-11-04T04:27:15;35.90;;;23.77;;
12625;SDS011;6378;42.684;23.372;2022-11-04T04:29:55;34.53;;;22.67;;
12625;SDS011;6378;42.684;23.372;2022-11-04T04:32:23;30.53;;;21.07;;
12625;SDS011;6378;42.684;23.372;2022-11-04T04:34:52;33.07;;;21.77;;
12625;SDS011;6378;42.684;23.372;2022-11-04T04:37:40;30.50;;;21.07;;
12625;SDS011;6378;42.684;23.372;2022-11-04T04:40:08;32.33;;;21.23;;
12625;SDS011;6378;42.684;23.372;2022-11-04T04:42:58;34.27;;;20.93;;
12625;SDS011;6378;42.684;23.372;2022-11-04T04:45:43;33.50;;;21.97;;
12625;SDS011;6378;42.684;23.372;2022-11-04T04:48:14;35.97;;;22.23;;
12625;SDS011;6378;42.684;23.372;2022-11-04T04:50:41;31.13;;;20.80;;
12625;SDS011;6378;42.684;23.372;2022-11-04T04:53:12;33.87;;;21.97;;
12625;SDS011;6378;42.684;23.372;2022-11-04T04:55:37;32.20;;;20.23;;
12625;SDS011;6378;42.684;23.372;2022-11-04T04:58:03;30.83;;;21.03;;
12625;SDS011;6378;42.684;23.372;2022-11-04T05:00:28;36.23;;;21.47;;
12625;SDS011;6378;42.684;23.372;2022-11-04T05:02:54;34.70;;;20.50;;
12625;SDS011;6378;42.684;23.372;2022-11-04T05:05:19;36.67;;;20.67;;
12625;SDS011;6378;42.684;23.372;2022-11-04T05:07:45;33.13;;;21.07;;
12625;SDS011;6378;42.684;23.372;2022-11-04T05:10:11;35.10;;;22.40;;
12625;SDS011;6378;42.684;23.372;2022-11-04T05:12:38;34.37;;;21.50;;
12625;SDS011;6378;42.684;23.372;2022-11-04T05:15:23;30.53;;;20.40;;
12625;SDS011;6378;42.684;23.372;2022-11-04T05:17:53;29.40;;;19.63;;
12625;SDS011;6378;42.684;23.372;2022-11-04T05:20:19;34.17;;;20.40;;
12625;SDS011;6378;42.684;23.372;2022-11-04T05:22:45;32.17;;;21.63;;
12625;SDS011;6378;42.684;23.372;2022-11-04T05:25:10;36.80;;;21.10;;
12625;SDS011;6378;42.684;23.372;2022-11-04T05:27:36;38.50;;;23.27;;
12625;SDS011;6378;42.684;23.372;2022-11-04T05:30:01;36.90;;;21.27;;
12625;SDS011;6378;42.684;23.372;2022-11-04T05:32:28;37.33;;;20.57;;
12625;SDS011;6378;42.684;23.372;2022-11-04T05:34:55;34.43;;;20.83;;
12625;SDS011;6378;42.684;23.372;2022-11-04T05:37:20;30.83;;;19.97;;
12625;SDS011;6378;42.684;23.372;2022-11-04T05:39:46;36.40;;;20.83;;
12625;SDS011;6378;42.684;23.372;2022-11-04T05:42:11;28.88;;;19.60;;
12625;SDS011;6378;42.684;23.372;2022-11-04T05:44:36;32.17;;;18.60;;
12625;SDS011;6378;42.684;23.372;2022-11-04T05:47:02;29.38;;;19.38;;
12625;SDS011;6378;42.684;23.372;2022-11-04T05:49:27;32.70;;;20.73;;
12625;SDS011;6378;42.684;23.372;2022-11-04T05:51:53;36.42;;;20.40;;
12625;SDS011;6378;42.684;23.372;2022-11-04T05:54:18;32.80;;;19.75;;
12625;SDS011;6378;42.684;23.372;2022-11-04T05:56:43;31.98;;;19.75;;
12625;SDS011;6378;42.684;23.372;2022-11-04T05:59:09;29.88;;;19.25;;
12625;SDS011;6378;42.684;23.372;2022-11-04T06:01:35;31.17;;;19.27;;
12625;SDS011;6378;42.684;23.372;2022-11-04T06:04:02;29.33;;;19.67;;
12625;SDS011;6378;42.684;23.372;2022-11-04T06:06:30;36.63;;;20.67;;
12625;SDS011;6378;42.684;23.372;2022-11-04T06:08:58;28.73;;;20.15;;
12625;SDS011;6378;42.684;23.372;2022-11-04T06:11:24;30.75;;;20.42;;
12625;SDS011;6378;42.684;23.372;2022-11-04T06:13:52;31.95;;;20.35;;
12625;SDS011;6378;42.684;23.372;2022-11-04T06:16:18;30.63;;;19.17;;
12625;SDS011;6378;42.684;23.372;2022-11-04T06:18:43;32.85;;;21.30;;
12625;SDS011;6378;42.684;23.372;2022-11-04T06:21:16;30.27;;;19.65;;
12625;SDS011;6378;42.684;23.372;2022-11-04T06:23:44;32.95;;;19.88;;
12625;SDS011;6378;42.684;23.372;2022-11-04T06:26:10;30.75;;;19.73;;
12625;SDS011;6378;42.684;23.372;2022-11-04T06:28:36;36.42;;;21.95;;
12625;SDS011;6378;42.684;23.372;2022-11-04T06:31:04;38.00;;;22.88;;
12625;SDS011;6378;42.684;23.372;2022-11-04T06:33:32;34.15;;;21.85;;
12625;SDS011;6378;42.684;23.372;2022-11-04T06:35:58;38.35;;;23.08;;
12625;SDS011;6378;42.684;23.372;2022-11-04T06:38:24;37.22;;;22.95;;
12625;SDS011;6378;42.684;23.372;2022-11-04T06:40:50;33.22;;;22.55;;
12625;SDS011;6378;42.684;23.372;2022-11-04T06:43:15;32.05;;;22.45;;
12625;SDS011;6378;42.684;23.372;2022-11-04T06:45:41;41.03;;;24.00;;
12625;SDS011;6378;42.684;23.372;2022-11-04T06:48:06;38.38;;;23.05;;
12625;SDS011;6378;42.684;23.372;2022-11-04T06:50:32;37.33;;;21.70;;
12625;SDS011;6378;42.684;23.372;2022-11-04T06:52:57;32.78;;;21.60;;
12625;SDS011;6378;42.684;23.372;2022-11-04T06:55:23;36.47;;;21.63;;
12625;SDS011;6378;42.684;23.372;2022-11-04T06:57:48;37.10;;;22.33;;
12625;SDS011;6378;42.684;23.372;2022-11-04T07:00:14;33.10;;;21.33;;
12625;SDS011;6378;42.684;23.372;2022-11-04T07:02:39;33.42;;;21.33;;
12625;SDS011;6378;42.684;23.372;2022-11-04T07:05:05;31.23;;;21.38;;
12625;SDS011;6378;42.684;23.372;2022-11-04T07:07:31;29.25;;;20.40;;
12625;SDS011;6378;42.684;23.372;2022-11-04T07:09:57;34.72;;;21.10;;
12625;SDS011;6378;42.684;23.372;2022-11-04T07:12:22;31.90;;;20.85;;
12625;SDS011;6378;42.684;23.372;2022-11-04T07:14:48;29.83;;;19.95;;
12625;SDS011;6378;42.684;23.372;2022-11-04T07:17:15;29.02;;;20.67;;
12625;SDS011;6378;42.684;23.372;2022-11-04T07:19:40;31.63;;;20.42;;
12625;SDS011;6378;42.684;23.372;2022-11-04T07:22:05;27.48;;;19.40;;
12625;SDS011;6378;42.684;23.372;2022-11-04T07:24:32;29.17;;;20.48;;
12625;SDS011;6378;42.684;23.372;2022-11-04T07:26:58;28.52;;;19.88;;
12625;SDS011;6378;42.684;23.372;2022-11-04T07:29:23;34.45;;;22.60;;
12625;SDS011;6378;42.684;23.372;2022-11-04T07:31:49;26.52;;;19.15;;
12625;SDS011;6378;42.684;23.372;2022-11-04T07:34:15;29.20;;;19.70;;
12625;SDS011;6378;42.684;23.372;2022-11-04T07:36:41;33.08;;;20.17;;
12625;SDS011;6378;42.684;23.372;2022-11-04T07:39:06;31.90;;;20.85;;
12625;SDS011;6378;42.684;23.372;2022-11-04T07:41:32;33.50;;;21.88;;
12625;SDS011;6378;42.684;23.372;2022-11-04T07:43:57;32.50;;;20.77;;
12625;SDS011;6378;42.684;23.372;2022-11-04T07:46:24;34.58;;;21.13;;
12625;SDS011;6378;42.684;23.372;2022-11-04T07:48:50;29.27;;;19.75;;
12625;SDS011;6378;42.684;23.372;2022-11-04T07:51:17;36.38;;;20.90;;
12625;SDS011;6378;42.684;23.372;2022-11-04T07:53:44;30.75;;;20.10;;
12625;SDS011;6378;42.684;23.372;2022-11-04T07:56:11;30.67;;;20.08;;
12625;SDS011;6378;42.684;23.372;2022-11-04T07:58:38;30.23;;;20.70;;
12625;SDS011;6378;42.684;23.372;2022-11-04T08:01:05;30.35;;;20.80;;
12625;SDS011;6378;42.684;23.372;2022-11-04T08:03:34;31.17;;;20.02;;
12625;SDS011;6378;42.684;23.372;2022-11-04T08:06:02;33.70;;;22.63;;
12625;SDS011;6378;42.684;23.372;2022-11-04T08:08:29;31.65;;;20.15;;
12625;SDS011;6378;42.684;23.372;2022-11-04T08:10:56;34.45;;;20.48;;
12625;SDS011;6378;42.684;23.372;2022-11-04T08:13:27;32.00;;;20.83;;
12625;SDS011;6378;42.684;23.372;2022-11-04T08:15:54;30.85;;;19.70;;
12625;SDS011;6378;42.684;23.372;2022-11-04T08:18:27;33.40;;;20.40;;
12625;SDS011;6378;42.684;23.372;2022-11-04T08:20:52;33.15;;;21.25;;
12625;SDS011;6378;42.684;23.372;2022-11-04T08:23:17;29.80;;;20.92;;
12625;SDS011;6378;42.684;23.372;2022-11-04T08:25:43;33.15;;;21.92;;
12625;SDS011;6378;42.684;23.372;2022-11-04T08:28:09;31.77;;;20.75;;
12625;SDS011;6378;42.684;23.372;2022-11-04T08:30:50;39.08;;;23.45;;
12625;SDS011;6378;42.684;23.372;2022-11-04T08:33:26;34.75;;;23.20;;
12625;SDS011;6378;42.684;23.372;2022-11-04T08:35:54;42.03;;;25.60;;
12625;SDS011;6378;42.684;23.372;2022-11-04T08:38:22;34.05;;;21.90;;
12625;SDS011;6378;42.684;23.372;2022-11-04T08:41:01;31.90;;;19.05;;
12625;SDS011;6378;42.684;23.372;2022-11-04T08:43:40;31.25;;;20.55;;
12625;SDS011;6378;42.684;23.372;2022-11-04T08:46:08;30.50;;;19.98;;
12625;SDS011;6378;42.684;23.372;2022-11-04T08:48:36;30.80;;;20.52;;
12625;SDS011;6378;42.684;23.372;2022-11-04T08:51:03;32.97;;;21.20;;
12625;SDS011;6378;42.684;23.372;2022-11-04T08:53:37;34.30;;;21.63;;
12625;SDS011;6378;42.684;23.372;2022-11-04T08:56:12;30.35;;;20.85;;
12625;SDS011;6378;42.684;23.372;2022-11-04T08:58:44;30.05;;;19.92;;
12625;SDS011;6378;42.684;23.372;2022-11-04T09:01:16;33.60;;;21.15;;
12625;SDS011;6378;42.684;23.372;2022-11-04T09:03:42;34.28;;;21.75;;
12625;SDS011;6378;42.684;23.372;2022-11-04T09:06:10;31.13;;;20.10;;
12625;SDS011;6378;42.684;23.372;2022-11-04T09:11:51;31.17;;;21.23;;
12625;SDS011;6378;42.684;23.372;2022-11-04T09:17:27;32.72;;;19.05;;
12625;SDS011;6378;42.684;23.372;2022-11-04T09:19:58;32.67;;;21.42;;
12625;SDS011;6378;42.684;23.372;2022-11-04T09:22:30;32.63;;;20.73;;
12625;SDS011;6378;42.684;23.372;2022-11-04T09:24:55;34.80;;;21.15;;
12625;SDS011;6378;42.684;23.372;2022-11-04T09:27:21;33.00;;;21.38;;
12625;SDS011;6378;42.684;23.372;2022-11-04T09:29:46;34.85;;;21.42;;
12625;SDS011;6378;42.684;23.372;2022-11-04T09:32:12;32.05;;;21.02;;
12625;SDS011;6378;42.684;23.372;2022-11-04T09:34:37;32.10;;;20.50;;
12625;SDS011;6378;42.684;23.372;2022-11-04T09:37:03;32.53;;;21.13;;
12625;SDS011;6378;42.684;23.372;2022-11-04T09:39:28;28.45;;;20.40;;
12625;SDS011;6378;42.684;23.372;2022-11-04T09:42:00;34.85;;;20.80;;
12625;SDS011;6378;42.684;23.372;2022-11-04T09:44:47;30.40;;;21.55;;
12625;SDS011;6378;42.684;23.372;2022-11-04T09:47:14;38.75;;;22.88;;
12625;SDS011;6378;42.684;23.372;2022-11-04T09:49:41;40.83;;;23.63;;
12625;SDS011;6378;42.684;23.372;2022-11-04T09:52:17;27.30;;;18.27;;
12625;SDS011;6378;42.684;23.372;2022-11-04T09:54:59;31.85;;;20.92;;
12625;SDS011;6378;42.684;23.372;2022-11-04T09:57:26;33.30;;;20.13;;
12625;SDS011;6378;42.684;23.372;2022-11-04T09:59:52;33.42;;;20.35;;
12625;SDS011;6378;42.684;23.372;2022-11-04T10:27:39;24.52;;;14.77;;
12625;SDS011;6378;42.684;23.372;2022-11-04T10:30:15;22.50;;;14.93;;
12625;SDS011;6378;42.684;23.372;2022-11-04T10:40:53;21.42;;;15.05;;
12625;SDS011;6378;42.684;23.372;2022-11-04T10:43:26;23.95;;;15.70;;
12625;SDS011;6378;42.684;23.372;2022-11-04T10:51:37;22.63;;;15.55;;
12625;SDS011;6378;42.684;23.372;2022-11-04T10:54:04;22.67;;;15.65;;
12625;SDS011;6378;42.684;23.372;2022-11-04T11:01:56;26.95;;;15.60;;
12625;SDS011;6378;42.684;23.372;2022-11-04T11:04:30;23.58;;;14.35;;
12625;SDS011;6378;42.684;23.372;2022-11-04T11:07:01;26.00;;;15.02;;
12625;SDS011;6378;42.684;23.372;2022-11-04T11:11:57;21.65;;;15.10;;
12625;SDS011;6378;42.684;23.372;2022-11-04T11:20:17;16.63;;;13.18;;
12625;SDS011;6378;42.684;23.372;2022-11-04T11:22:43;20.20;;;12.25;;
12625;SDS011;6378;42.684;23.372;2022-11-04T11:27:49;19.13;;;13.63;;
12625;SDS011;6378;42.684;23.372;2022-11-04T11:32:52;19.52;;;13.68;;
12625;SDS011;6378;42.684;23.372;2022-11-04T11:35:21;22.95;;;13.80;;
12625;SDS011;6378;42.684;23.372;2022-11-04T11:37:50;20.73;;;14.00;;
12625;SDS011;6378;42.684;23.372;2022-11-04T11:40:23;20.02;;;13.15;;
12625;SDS011;6378;42.684;23.372;2022-11-04T11:42:51;18.45;;;13.25;;
12625;SDS011;6378;42.684;23.372;2022-11-04T11:45:17;22.13;;;13.52;;
12625;SDS011;6378;42.684;23.372;2022-11-04T11:47:47;22.88;;;13.73;;
12625;SDS011;6378;42.684;23.372;2022-11-04T11:50:19;22.13;;;12.60;;
12625;SDS011;6378;42.684;23.372;2022-11-04T11:53:14;18.85;;;12.95;;
12625;SDS011;6378;42.684;23.372;2022-11-04T11:55:47;20.45;;;13.23;;
12625;SDS011;6378;42.684;23.372;2022-11-04T11:58:31;19.17;;;13.32;;
12625;SDS011;6378;42.684;23.372;2022-11-04T12:04:02;19.63;;;12.02;;
12625;SDS011;6378;42.684;23.372;2022-11-04T12:12:04;18.38;;;12.57;;
12625;SDS011;6378;42.684;23.372;2022-11-04T12:14:40;21.90;;;12.85;;
12625;SDS011;6378;42.684;23.372;2022-11-04T12:27:39;21.40;;;12.70;;
12625;SDS011;6378;42.684;23.372;2022-11-04T12:30:21;20.95;;;12.88;;
12625;SDS011;6378;42.684;23.372;2022-11-04T12:33:09;18.15;;;12.98;;
12625;SDS011;6378;42.684;23.372;2022-11-04T12:51:31;18.25;;;12.18;;
12625;SDS011;6378;42.684;23.372;2022-11-04T12:54:17;18.42;;;12.70;;
12625;SDS011;6378;42.684;23.372;2022-11-04T12:59:49;19.33;;;12.15;;
12625;SDS011;6378;42.684;23.372;2022-11-04T13:02:27;19.92;;;11.80;;
12625;SDS011;6378;42.684;23.372;2022-11-04T13:04:59;19.48;;;12.40;;
12625;SDS011;6378;42.684;23.372;2022-11-04T13:07:39;18.55;;;13.07;;
12625;SDS011;6378;42.684;23.372;2022-11-04T13:10:14;20.17;;;13.25;;
12625;SDS011;6378;42.684;23.372;2022-11-04T13:12:52;20.08;;;13.48;;
12625;SDS011;6378;42.684;23.372;2022-11-04T13:15:24;20.00;;;12.73;;
12625;SDS011;6378;42.684;23.372;2022-11-04T13:17:54;23.70;;;13.35;;
12625;SDS011;6378;42.684;23.372;2022-11-04T13:20:32;18.58;;;12.95;;
12625;SDS011;6378;42.684;23.372;2022-11-04T13:23:09;19.48;;;12.70;;
12625;SDS011;6378;42.684;23.372;2022-11-04T13:25:41;22.50;;;12.90;;
12625;SDS011;6378;42.684;23.372;2022-11-04T13:28:12;20.23;;;12.68;;
12625;SDS011;6378;42.684;23.372;2022-11-04T13:44:29;20.63;;;13.93;;
12625;SDS011;6378;42.684;23.372;2022-11-04T13:47:02;21.63;;;14.45;;
12625;SDS011;6378;42.684;23.372;2022-11-04T13:49:35;19.95;;;12.73;;
12625;SDS011;6378;42.684;23.372;2022-11-04T13:52:06;23.60;;;13.13;;
12625;SDS011;6378;42.684;23.372;2022-11-04T13:57:10;18.17;;;12.13;;
12625;SDS011;6378;42.684;23.372;2022-11-04T13:59:40;20.92;;;13.40;;
12625;SDS011;6378;42.684;23.372;2022-11-04T14:18:45;18.13;;;12.70;;
12625;SDS011;6378;42.684;23.372;2022-11-04T14:21:16;21.95;;;12.98;;
12625;SDS011;6378;42.684;23.372;2022-11-04T14:23:51;22.10;;;12.20;;
12625;SDS011;6378;42.684;23.372;2022-11-04T14:26:24;20.95;;;13.30;;
12625;SDS011;6378;42.684;23.372;2022-11-04T14:29:04;18.20;;;12.52;;
12625;SDS011;6378;42.684;23.372;2022-11-04T14:31:59;21.05;;;14.23;;
12625;SDS011;6378;42.684;23.372;2022-11-04T14:34:29;19.25;;;12.55;;
12625;SDS011;6378;42.684;23.372;2022-11-04T14:36:57;21.90;;;13.52;;
12625;SDS011;6378;42.684;23.372;2022-11-04T14:39:43;20.58;;;13.00;;
12625;SDS011;6378;42.684;23.372;2022-11-04T14:42:12;23.88;;;13.38;;
12625;SDS011;6378;42.684;23.372;2022-11-04T14:54:48;23.45;;;14.25;;
12625;SDS011;6378;42.684;23.372;2022-11-04T14:57:20;22.65;;;13.95;;
12625;SDS011;6378;42.684;23.372;2022-11-04T14:59:46;21.92;;;13.80;;
12625;SDS011;6378;42.684;23.372;2022-11-04T15:02:17;21.17;;;13.00;;
12625;SDS011;6378;42.684;23.372;2022-11-04T15:04:54;27.40;;;14.38;;
12625;SDS011;6378;42.684;23.372;2022-11-04T15:07:40;20.30;;;13.90;;
12625;SDS011;6378;42.684;23.372;2022-11-04T15:10:25;22.42;;;13.40;;
12625;SDS011;6378;42.684;23.372;2022-11-04T15:12:56;26.40;;;15.35;;
12625;SDS011;6378;42.684;23.372;2022-11-04T15:15:33;28.13;;;18.07;;
12625;SDS011;6378;42.684;23.372;2022-11-04T15:18:11;21.05;;;14.80;;
12625;SDS011;6378;42.684;23.372;2022-11-04T15:20:39;22.60;;;14.82;;
12625;SDS011;6378;42.684;23.372;2022-11-04T15:23:13;25.08;;;16.45;;
12625;SDS011;6378;42.684;23.372;2022-11-04T15:25:45;27.27;;;16.77;;
12625;SDS011;6378;42.684;23.372;2022-11-04T15:28:19;25.10;;;15.68;;
12625;SDS011;6378;42.684;23.372;2022-11-04T15:31:04;29.20;;;18.40;;
12625;SDS011;6378;42.684;23.372;2022-11-04T15:33:39;25.65;;;16.90;;
12625;SDS011;6378;42.684;23.372;2022-11-04T15:36:08;21.20;;;14.40;;
12625;SDS011;6378;42.684;23.372;2022-11-04T15:38:42;27.20;;;15.38;;
12625;SDS011;6378;42.684;23.372;2022-11-04T15:41:11;23.50;;;15.82;;
12625;SDS011;6378;42.684;23.372;2022-11-04T15:43:56;26.35;;;16.25;;
12625;SDS011;6378;42.684;23.372;2022-11-04T15:46:22;25.58;;;15.20;;
12625;SDS011;6378;42.684;23.372;2022-11-04T15:49:01;22.77;;;15.70;;
12625;SDS011;6378;42.684;23.372;2022-11-04T15:51:29;26.50;;;16.70;;
12625;SDS011;6378;42.684;23.372;2022-11-04T15:54:04;35.28;;;17.30;;
12625;SDS011;6378;42.684;23.372;2022-11-04T15:56:45;27.02;;;16.75;;
12625;SDS011;6378;42.684;23.372;2022-11-04T15:59:26;26.05;;;15.52;;
12625;SDS011;6378;42.684;23.372;2022-11-04T16:01:55;23.85;;;15.65;;
12625;SDS011;6378;42.684;23.372;2022-11-04T16:04:25;26.30;;;15.85;;
12625;SDS011;6378;42.684;23.372;2022-11-04T16:07:05;25.27;;;16.02;;
12625;SDS011;6378;42.684;23.372;2022-11-04T16:09:48;29.10;;;15.75;;
12625;SDS011;6378;42.684;23.372;2022-11-04T16:12:16;26.10;;;16.75;;
12625;SDS011;6378;42.684;23.372;2022-11-04T16:14:54;27.42;;;15.70;;
12625;SDS011;6378;42.684;23.372;2022-11-04T16:17:21;23.63;;;15.30;;
12625;SDS011;6378;42.684;23.372;2022-11-04T16:19:49;24.90;;;16.10;;
12625;SDS011;6378;42.684;23.372;2022-11-04T16:22:20;24.63;;;16.58;;
12625;SDS011;6378;42.684;23.372;2022-11-04T16:24:50;27.33;;;16.77;;
12625;SDS011;6378;42.684;23.372;2022-11-04T16:27:18;25.27;;;16.27;;
12625;SDS011;6378;42.684;23.372;2022-11-04T16:29:53;21.95;;;15.50;;
12625;SDS011;6378;42.684;23.372;2022-11-04T16:34:52;26.15;;;16.67;;
12625;SDS011;6378;42.684;23.372;2022-11-04T16:37:21;25.67;;;16.00;;
12625;SDS011;6378;42.684;23.372;2022-11-04T16:39:46;25.20;;;16.58;;
12625;SDS011;6378;42.684;23.372;2022-11-04T16:42:14;24.65;;;16.20;;
12625;SDS011;6378;42.684;23.372;2022-11-04T16:44:47;21.05;;;13.38;;
12625;SDS011;6378;42.684;23.372;2022-11-04T16:47:15;21.80;;;16.48;;
12625;SDS011;6378;42.684;23.372;2022-11-04T16:49:42;26.30;;;15.57;;
12625;SDS011;6378;42.684;23.372;2022-11-04T16:52:08;24.00;;;13.80;;
12625;SDS011;6378;42.684;23.372;2022-11-04T16:54:38;20.95;;;14.52;;
12625;SDS011;6378;42.684;23.372;2022-11-04T16:57:03;25.33;;;15.13;;
12625;SDS011;6378;42.684;23.372;2022-11-04T16:59:33;22.85;;;14.88;;
12625;SDS011;6378;42.684;23.372;2022-11-04T17:01:58;23.45;;;14.48;;
12625;SDS011;6378;42.684;23.372;2022-11-04T17:04:23;23.58;;;14.93;;
12625;SDS011;6378;42.684;23.372;2022-11-04T17:06:49;21.98;;;13.95;;
12625;SDS011;6378;42.684;23.372;2022-11-04T17:09:21;25.58;;;15.35;;
12625;SDS011;6378;42.684;23.372;2022-11-04T17:11:47;22.77;;;15.35;;
12625;SDS011;6378;42.684;23.372;2022-11-04T17:14:13;30.38;;;15.73;;
12625;SDS011;6378;42.684;23.372;2022-11-04T17:16:40;29.42;;;16.25;;
12625;SDS011;6378;42.684;23.372;2022-11-04T17:19:08;24.27;;;15.32;;
12625;SDS011;6378;42.684;23.372;2022-11-04T17:21:38;25.63;;;16.52;;
12625;SDS011;6378;42.684;23.372;2022-11-04T17:24:03;28.40;;;15.57;;
12625;SDS011;6378;42.684;23.372;2022-11-04T17:26:29;25.67;;;15.35;;
12625;SDS011;6378;42.684;23.372;2022-11-04T17:28:55;23.83;;;15.45;;
12625;SDS011;6378;42.684;23.372;2022-11-04T17:31:21;24.25;;;15.18;;
12625;SDS011;6378;42.684;23.372;2022-11-04T17:33:47;31.40;;;16.27;;
12625;SDS011;6378;42.684;23.372;2022-11-04T17:36:16;23.60;;;15.25;;
12625;SDS011;6378;42.684;23.372;2022-11-04T17:38:43;27.23;;;16.02;;
12625;SDS011;6378;42.684;23.372;2022-11-04T17:41:09;22.17;;;15.48;;
12625;SDS011;6378;42.684;23.372;2022-11-04T17:43:53;25.08;;;16.40;;